Time;durP1;ratioP1;P1;durP2;ratioP2;P2;SDS_P1;SDS_P2;PMS_P1;PMS_P2;Temp;Humidity;BMP_temperature;BMP_pressure;BME280_temperature;BME280_humidity;BME280_pressure;Samples;Min_cycle;Max_cycle;Signal;HPM_P1;HPM_P2
2022/09/08 00:00:31;;;;;;;0.45;0.40;;;;;;;;;;5019273;28;20045;-66
2022/09/08 00:03:01;;;;;;;0.77;0.38;;;;;;;;;;5025625;28;20056;-66
2022/09/08 00:09:03;;;;;;;0.70;0.50;;;;;;;;;;5026148;28;20092;-66
2022/09/08 00:11:33;;;;;;;1.08;0.60;;;;;;;;;;5022218;28;20240;-66
2022/09/08 00:14:09;;;;;;;0.65;0.50;;;;;;;;;;5028537;28;20152;-66
2022/09/08 00:16:41;;;;;;;0.57;0.40;;;;;;;;;;5026505;28;20517;-66
2022/09/08 00:19:10;;;;;;;0.90;0.52;;;;;;;;;;5027699;28;20045;-66
2022/09/08 00:21:38;;;;;;;1.05;0.50;;;;;;;;;;5027951;28;20060;-66
2022/09/08 00:24:06;;;;;;;0.30;0.30;;;;;;;;;;5031470;28;20409;-66
2022/09/08 00:26:35;;;;;;;1.58;0.30;;;;;;;;;;5028728;28;20052;-66
2022/09/08 00:29:03;;;;;;;0.40;0.20;;;;;;;;;;5028457;28;20048;-66
2022/09/08 00:31:32;;;;;;;0.85;0.30;;;;;;;;;;5028616;28;20052;-66
2022/09/08 00:34:01;;;;;;;0.60;0.38;;;;;;;;;;5027486;28;20454;-66
2022/09/08 00:36:31;;;;;;;1.85;0.40;;;;;;;;;;5029895;28;20060;-66
2022/09/08 00:39:00;;;;;;;1.17;0.45;;;;;;;;;;5027839;28;20050;-66
2022/09/08 00:41:29;;;;;;;0.32;0.32;;;;;;;;;;5027853;28;20049;-66
2022/09/08 00:44:00;;;;;;;5.72;0.63;;;;;;;;;;5028456;28;20045;-66
2022/09/08 00:46:30;;;;;;;1.75;0.38;;;;;;;;;;5029044;28;20112;-66
2022/09/08 00:49:02;;;;;;;1.08;0.93;;;;;;;;;;5028035;28;20107;-66
2022/09/08 00:51:32;;;;;;;3.28;0.80;;;;;;;;;;5028747;28;20049;-66
2022/09/08 00:54:01;;;;;;;0.60;0.30;;;;;;;;;;5026355;28;20060;-66
2022/09/08 00:56:30;;;;;;;0.50;0.50;;;;;;;;;;5029553;28;20420;-66
2022/09/08 00:59:00;;;;;;;0.52;0.35;;;;;;;;;;5027647;28;20049;-66
2022/09/08 01:01:28;;;;;;;0.75;0.45;;;;;;;;;;5029035;28;20048;-65
2022/09/08 01:03:57;;;;;;;0.70;0.63;;;;;;;;;;5023545;28;20409;-66
2022/09/08 01:15:08;;;;;;;0.50;0.40;;;;;;;;;;5021212;28;20045;-66
2022/09/08 01:17:36;;;;;;;0.43;0.43;;;;;;;;;;5029276;28;20049;-66
2022/09/08 01:20:07;;;;;;;0.47;0.43;;;;;;;;;;5026795;28;20040;-66
2022/09/08 01:22:48;;;;;;;0.32;0.30;;;;;;;;;;5021997;28;20037;-66
2022/09/08 01:25:26;;;;;;;1.00;0.52;;;;;;;;;;5027077;28;20054;-66
2022/09/08 01:27:58;;;;;;;1.92;0.43;;;;;;;;;;5027013;28;20056;-66
2022/09/08 01:30:27;;;;;;;3.13;0.50;;;;;;;;;;5025162;28;20049;-66
2022/09/08 01:32:55;;;;;;;0.82;0.57;;;;;;;;;;5025063;28;20076;-66
2022/09/08 01:35:30;;;;;;;0.43;0.30;;;;;;;;;;5025664;28;20423;-66
2022/09/08 01:37:58;;;;;;;;;;;;;;;;;;5025728;28;20042;-66
2022/09/08 01:40:27;;;;;;;0.25;0.25;;;;;;;;;;5022979;28;20004;-66
2022/09/08 01:42:57;;;;;;;1.02;0.63;;;;;;;;;;5027855;28;20055;-66
2022/09/08 01:45:27;;;;;;;0.10;0.10;;;;;;;;;;5024762;28;20046;-66
2022/09/08 01:47:56;;;;;;;0.40;0.40;;;;;;;;;;5024921;28;20049;-66
2022/09/08 01:50:24;;;;;;;0.73;0.30;;;;;;;;;;5025027;28;20046;-66
2022/09/08 01:52:52;;;;;;;0.38;0.35;;;;;;;;;;5026078;28;20136;-66
2022/09/08 01:55:20;;;;;;;0.47;0.47;;;;;;;;;;5026833;28;20499;-66
2022/09/08 01:57:49;;;;;;;3.00;1.73;;;;;;;;;;5025324;28;20057;-66
2022/09/08 02:00:20;;;;;;;0.90;0.85;;;;;;;;;;5025018;28;20612;-66
2022/09/08 02:02:48;;;;;;;0.22;0.22;;;;;;;;;;5027605;28;20333;-66
2022/09/08 02:05:16;;;;;;;1.95;0.50;;;;;;;;;;5026841;28;20146;-66
2022/09/08 02:07:51;;;;;;;0.17;0.17;;;;;;;;;;5024716;28;20056;-66
2022/09/08 02:10:20;;;;;;;0.68;0.47;;;;;;;;;;5028809;28;20057;-66
2022/09/08 02:12:48;;;;;;;0.45;0.30;;;;;;;;;;5029642;28;20064;-66
2022/09/08 02:15:16;;;;;;;3.30;0.55;;;;;;;;;;5033083;28;20041;-66
2022/09/08 02:17:46;;;;;;;0.35;0.30;;;;;;;;;;5049190;28;20079;-65
2022/09/08 02:20:15;;;;;;;0.40;0.40;;;;;;;;;;5046189;28;20057;-66
2022/09/08 02:22:44;;;;;;;3.15;0.30;;;;;;;;;;5047173;28;20056;-66
2022/09/08 02:25:12;;;;;;;1.08;0.52;;;;;;;;;;5036762;28;20280;-66
2022/09/08 02:27:40;;;;;;;0.70;0.40;;;;;;;;;;5024964;28;20050;-66
2022/09/08 02:30:09;;;;;;;0.40;0.30;;;;;;;;;;5022658;28;20061;-66
2022/09/08 02:32:38;;;;;;;0.45;0.35;;;;;;;;;;5023835;28;20140;-66
2022/09/08 02:35:08;;;;;;;1.00;0.28;;;;;;;;;;5025223;28;20055;-66
2022/09/08 02:37:36;;;;;;;0.20;0.20;;;;;;;;;;5026936;28;20053;-66
2022/09/08 02:40:06;;;;;;;0.60;0.32;;;;;;;;;;5026629;28;20499;-65
2022/09/08 02:42:34;;;;;;;0.52;0.40;;;;;;;;;;5025241;28;20088;-65
2022/09/08 02:45:03;;;;;;;0.22;0.20;;;;;;;;;;5027271;28;20053;-66
2022/09/08 02:47:33;;;;;;;4.38;0.45;;;;;;;;;;5028430;28;20045;-66
2022/09/08 02:50:01;;;;;;;1.35;0.47;;;;;;;;;;5026117;28;20057;-66
2022/09/08 02:52:32;;;;;;;0.30;0.30;;;;;;;;;;5025112;28;20535;-66
2022/09/08 02:55:00;;;;;;;0.45;0.45;;;;;;;;;;5026163;28;20050;-66
2022/09/08 02:57:29;;;;;;;0.20;0.20;;;;;;;;;;5031425;28;20045;-67
2022/09/08 02:59:57;;;;;;;4.20;0.47;;;;;;;;;;5026890;28;20041;-66
2022/09/08 03:02:26;;;;;;;0.63;0.40;;;;;;;;;;5022385;28;20063;-66
2022/09/08 03:04:54;;;;;;;0.32;0.32;;;;;;;;;;5026894;28;20049;-66
2022/09/08 03:07:22;;;;;;;0.52;0.32;;;;;;;;;;5025712;28;20052;-66
2022/09/08 03:09:52;;;;;;;0.88;0.20;;;;;;;;;;5024690;28;20056;-66
2022/09/08 03:12:21;;;;;;;0.65;0.40;;;;;;;;;;5025249;28;20487;-68
2022/09/08 03:14:50;;;;;;;0.43;0.43;;;;;;;;;;5026948;28;20048;-66
2022/09/08 03:17:19;;;;;;;0.20;0.10;;;;;;;;;;5048435;28;20064;-66
2022/09/08 03:19:47;;;;;;;2.63;0.55;;;;;;;;;;5050211;28;20333;-66
2022/09/08 03:22:15;;;;;;;0.15;0.15;;;;;;;;;;5045677;28;20044;-66
2022/09/08 03:24:44;;;;;;;0.95;0.32;;;;;;;;;;5047443;28;20144;-66
2022/09/08 03:27:14;;;;;;;0.68;0.40;;;;;;;;;;5047818;28;20129;-66
2022/09/08 03:29:42;;;;;;;5.15;0.30;;;;;;;;;;5048225;28;20408;-66
2022/09/08 03:32:10;;;;;;;0.30;0.30;;;;;;;;;;5044999;28;20054;-66
2022/09/08 03:34:39;;;;;;;0.10;0.10;;;;;;;;;;5049206;28;20053;-66
2022/09/08 03:37:07;;;;;;;0.65;0.32;;;;;;;;;;5049711;28;20045;-66
2022/09/08 03:39:35;;;;;;;0.35;0.20;;;;;;;;;;5050691;28;20053;-66
2022/09/08 03:42:04;;;;;;;0.13;0.10;;;;;;;;;;5047323;28;20511;-66
2022/09/08 03:44:34;;;;;;;0.30;0.30;;;;;;;;;;5049917;28;20075;-67
2022/09/08 03:47:03;;;;;;;1.27;0.28;;;;;;;;;;5049327;28;20460;-66
2022/09/08 03:49:32;;;;;;;0.70;0.20;;;;;;;;;;5049069;28;20405;-66
2022/09/08 03:52:00;;;;;;;0.00;0.00;;;;;;;;;;5043088;28;20048;-66
2022/09/08 03:57:15;;;;;;;0.63;0.38;;;;;;;;;;5057791;28;20420;-66
2022/09/08 03:59:45;;;;;;;1.02;0.57;;;;;;;;;;5047586;28;20141;-66
2022/09/08 04:02:14;;;;;;;1.17;0.40;;;;;;;;;;5039992;28;20060;-66
2022/09/08 04:04:43;;;;;;;0.13;0.13;;;;;;;;;;5040683;28;20061;-66
2022/09/08 04:07:11;;;;;;;0.10;0.10;;;;;;;;;;5027780;28;20045;-66
2022/09/08 04:09:40;;;;;;;0.20;0.20;;;;;;;;;;5024915;28;20421;-66
2022/09/08 04:12:08;;;;;;;0.75;0.32;;;;;;;;;;5026943;28;20093;-66
2022/09/08 04:14:37;;;;;;;0.95;0.40;;;;;;;;;;5030445;28;20057;-66
2022/09/08 04:17:07;;;;;;;0.25;0.25;;;;;;;;;;5045560;28;20036;-66
2022/09/08 04:19:35;;;;;;;0.52;0.17;;;;;;;;;;5048645;28;20049;-66
2022/09/08 04:22:03;;;;;;;0.40;0.22;;;;;;;;;;5044992;28;20049;-66
2022/09/08 04:24:32;;;;;;;0.43;0.43;;;;;;;;;;5048767;28;20057;-66
2022/09/08 04:27:00;;;;;;;0.52;0.35;;;;;;;;;;5045846;28;20045;-66
2022/09/08 04:29:28;;;;;;;0.55;0.20;;;;;;;;;;5046594;28;20052;-66
2022/09/08 04:31:57;;;;;;;0.32;0.25;;;;;;;;;;5043696;28;20049;-66
2022/09/08 04:34:26;;;;;;;0.20;0.20;;;;;;;;;;5046419;28;20056;-66
2022/09/08 04:36:55;;;;;;;0.15;0.10;;;;;;;;;;5025671;28;20045;-66
2022/09/08 04:39:23;;;;;;;0.10;0.10;;;;;;;;;;5029359;28;20068;-66
2022/09/08 04:41:51;;;;;;;0.30;0.30;;;;;;;;;;5028664;28;20237;-66
2022/09/08 04:44:19;;;;;;;0.20;0.20;;;;;;;;;;5028532;28;20050;-66
2022/09/08 04:46:48;;;;;;;0.40;0.30;;;;;;;;;;5026877;28;20061;-66
2022/09/08 04:49:16;;;;;;;0.10;0.10;;;;;;;;;;5027200;28;20049;-66
2022/09/08 04:51:46;;;;;;;0.40;0.40;;;;;;;;;;5025563;28;20500;-66
2022/09/08 04:54:14;;;;;;;0.20;0.20;;;;;;;;;;5022549;28;20057;-66
2022/09/08 04:56:42;;;;;;;0.20;0.20;;;;;;;;;;5027508;28;20059;-66
2022/09/08 04:59:11;;;;;;;5.47;0.20;;;;;;;;;;5023377;28;20053;-66
2022/09/08 05:01:39;;;;;;;0.22;0.20;;;;;;;;;;5025376;28;20049;-66
2022/09/08 05:04:08;;;;;;;0.20;0.20;;;;;;;;;;5023305;28;20063;-66
2022/09/08 05:06:36;;;;;;;0.10;0.10;;;;;;;;;;5024085;28;20276;-66
2022/09/08 05:09:06;;;;;;;1.35;0.38;;;;;;;;;;5022116;28;20133;-65
2022/09/08 05:11:36;;;;;;;0.10;0.10;;;;;;;;;;5020779;28;20485;-67
2022/09/08 05:14:04;;;;;;;0.38;0.30;;;;;;;;;;5020819;28;20054;-66
2022/09/08 05:16:33;;;;;;;0.28;0.28;;;;;;;;;;5040312;28;20056;-66
2022/09/08 05:19:03;;;;;;;0.70;0.15;;;;;;;;;;5042129;28;20068;-66
2022/09/08 05:21:32;;;;;;;0.43;0.30;;;;;;;;;;5043998;28;20055;-66
2022/09/08 05:24:02;;;;;;;0.55;0.55;;;;;;;;;;5037627;28;20516;-66
2022/09/08 05:26:32;;;;;;;3.17;0.28;;;;;;;;;;5045930;28;20052;-66
2022/09/08 05:29:02;;;;;;;0.10;0.10;;;;;;;;;;5040520;28;20390;-66
2022/09/08 05:31:32;;;;;;;0.70;0.22;;;;;;;;;;5040604;28;20497;-66
2022/09/08 05:34:01;;;;;;;0.47;0.30;;;;;;;;;;5045628;28;20052;-65
2022/09/08 05:36:30;;;;;;;2.63;0.40;;;;;;;;;;5046272;28;20041;-66
2022/09/08 05:38:59;;;;;;;0.15;0.10;;;;;;;;;;5048349;28;20060;-66
2022/09/08 05:41:27;;;;;;;0.13;0.10;;;;;;;;;;5047312;28;20053;-65
2022/09/08 05:43:58;;;;;;;0.10;0.10;;;;;;;;;;5046696;28;20040;-66
2022/09/08 05:46:27;;;;;;;0.10;0.10;;;;;;;;;;5036864;28;20048;-66
2022/09/08 05:48:57;;;;;;;0.43;0.20;;;;;;;;;;5030072;28;20088;-67
2022/09/08 05:51:25;;;;;;;1.65;0.15;;;;;;;;;;5029936;28;20053;-66
2022/09/08 05:53:54;;;;;;;0.20;0.20;;;;;;;;;;5030698;28;20497;-66
2022/09/08 05:56:22;;;;;;;1.65;0.20;;;;;;;;;;5047814;28;20079;-66
2022/09/08 05:58:51;;;;;;;0.10;0.10;;;;;;;;;;5046288;28;20441;-66
2022/09/08 06:01:27;;;;;;;0.10;0.10;;;;;;;;;;5048449;28;20045;-66
2022/09/08 06:03:56;;;;;;;0.55;0.20;;;;;;;;;;5047375;28;20432;-66
2022/09/08 06:06:24;;;;;;;0.90;0.40;;;;;;;;;;5031526;28;20071;-66
2022/09/08 06:08:54;;;;;;;0.45;0.25;;;;;;;;;;5028244;28;20060;-67
2022/09/08 06:11:22;;;;;;;0.20;0.20;;;;;;;;;;5028885;28;20045;-66
2022/09/08 06:13:51;;;;;;;1.45;0.10;;;;;;;;;;5027198;28;20493;-68
2022/09/08 06:16:19;;;;;;;0.28;0.20;;;;;;;;;;5040548;28;20464;-65
2022/09/08 06:18:50;;;;;;;0.25;0.20;;;;;;;;;;5049484;28;20045;-66
2022/09/08 06:21:20;;;;;;;0.00;0.00;;;;;;;;;;5048138;28;20072;-65
2022/09/08 06:23:49;;;;;;;0.10;0.10;;;;;;;;;;5047348;28;20053;-66
2022/09/08 06:26:37;;;;;;;0.10;0.10;;;;;;;;;;5047924;28;20056;-65
2022/09/08 06:29:08;;;;;;;0.08;0.08;;;;;;;;;;5045563;28;20056;-65
2022/09/08 06:31:38;;;;;;;0.00;0.00;;;;;;;;;;5046113;28;20045;-65
2022/09/08 06:34:12;;;;;;;0.17;0.10;;;;;;;;;;5048380;28;20045;-65
2022/09/08 06:36:43;;;;;;;0.10;0.10;;;;;;;;;;5041454;28;20038;-66
2022/09/08 06:39:16;;;;;;;0.73;0.73;;;;;;;;;;5046172;28;20053;-66
2022/09/08 06:41:47;;;;;;;0.10;0.10;;;;;;;;;;5043233;28;20570;-66
2022/09/08 06:44:20;;;;;;;0.03;0.03;;;;;;;;;;5050296;28;20053;-65
2022/09/08 06:46:48;;;;;;;0.10;0.10;;;;;;;;;;5025143;28;20064;-65
2022/09/08 06:49:18;;;;;;;0.95;0.20;;;;;;;;;;5031950;28;20041;-66
2022/09/08 06:51:51;;;;;;;0.88;0.25;;;;;;;;;;5026791;28;20050;-65
2022/09/08 06:54:35;;;;;;;0.00;0.00;;;;;;;;;;5030375;28;20049;-66
2022/09/08 06:57:07;;;;;;;0.15;0.15;;;;;;;;;;5062171;28;20059;-65
2022/09/08 07:00:02;;;;;;;0.10;0.10;;;;;;;;;;5056834;28;20092;-65
2022/09/08 07:02:45;;;;;;;0.03;0.03;;;;;;;;;;5053797;28;20419;-66
2022/09/08 07:05:21;;;;;;;0.20;0.10;;;;;;;;;;5043591;28;20057;-67
2022/09/08 07:07:54;;;;;;;0.00;0.00;;;;;;;;;;5027154;28;20516;-66
2022/09/08 07:10:24;;;;;;;0.20;0.20;;;;;;;;;;5030408;28;20409;-66
2022/09/08 07:12:55;;;;;;;0.00;0.00;;;;;;;;;;5027986;28;20495;-66
2022/09/08 07:15:39;;;;;;;0.20;0.10;;;;;;;;;;5028233;28;20045;-65
2022/09/08 07:18:13;;;;;;;0.17;0.10;;;;;;;;;;5030275;28;20049;-66
2022/09/08 07:20:43;;;;;;;0.10;0.10;;;;;;;;;;5029991;28;20133;-66
2022/09/08 07:23:15;;;;;;;0.10;0.10;;;;;;;;;;5028677;28;20081;-66
2022/09/08 07:25:46;;;;;;;0.20;0.10;;;;;;;;;;5024415;28;20444;-66
2022/09/08 07:28:16;;;;;;;0.85;0.20;;;;;;;;;;5031552;28;20055;-67
2022/09/08 07:30:47;;;;;;;0.00;0.00;;;;;;;;;;5023850;28;20045;-66
2022/09/08 07:33:18;;;;;;;0.73;0.30;;;;;;;;;;5026194;28;20163;-66
2022/09/08 07:35:52;;;;;;;0.20;0.17;;;;;;;;;;5031242;28;20053;-66
2022/09/08 07:38:26;;;;;;;0.08;0.08;;;;;;;;;;5030505;28;20052;-66
2022/09/08 07:40:56;;;;;;;1.20;0.85;;;;;;;;;;5040144;28;20497;-67
2022/09/08 07:43:25;;;;;;;0.45;0.10;;;;;;;;;;5032221;28;20092;-67
2022/09/08 07:46:02;;;;;;;1.10;0.30;;;;;;;;;;5030729;28;20542;-66
2022/09/08 07:48:36;;;;;;;0.10;0.10;;;;;;;;;;5030653;28;20050;-66
2022/09/08 07:51:27;;;;;;;0.22;0.22;;;;;;;;;;5034388;28;20064;-66
2022/09/08 07:54:23;;;;;;;0.10;0.10;;;;;;;;;;5031864;28;20562;-66
2022/09/08 07:57:14;;;;;;;0.10;0.10;;;;;;;;;;5040481;28;20397;-66
2022/09/08 08:00:05;;;;;;;0.30;0.30;;;;;;;;;;5030300;28;20049;-66
2022/09/08 08:02:49;;;;;;;0.10;0.10;;;;;;;;;;5033527;28;20057;-66
2022/09/08 08:05:21;;;;;;;0.52;0.20;;;;;;;;;;5034892;28;20061;-66
2022/09/08 08:08:13;;;;;;;0.28;0.22;;;;;;;;;;5046831;28;20564;-66
2022/09/08 08:11:06;;;;;;;0.20;0.20;;;;;;;;;;5052668;28;20052;-66
2022/09/08 08:13:44;;;;;;;0.60;0.28;;;;;;;;;;5053100;28;20040;-65
2022/09/08 08:16:15;;;;;;;0.65;0.50;;;;;;;;;;5047710;28;20041;-66
2022/09/08 08:18:49;;;;;;;0.10;0.10;;;;;;;;;;5049415;28;20143;-65
2022/09/08 08:21:20;;;;;;;0.35;0.22;;;;;;;;;;5049206;28;20483;-66
2022/09/08 08:23:58;;;;;;;0.85;0.20;;;;;;;;;;5050970;28;20057;-66
2022/09/08 08:26:33;;;;;;;0.57;0.43;;;;;;;;;;5033120;28;20481;-66
2022/09/08 08:29:37;;;;;;;0.08;0.08;;;;;;;;;;5027067;28;20064;-66
2022/09/08 08:32:11;;;;;;;0.10;0.10;;;;;;;;;;5023091;28;20045;-66
2022/09/08 08:35:03;;;;;;;0.22;0.20;;;;;;;;;;5030272;28;20053;-66
2022/09/08 08:37:33;;;;;;;0.30;0.20;;;;;;;;;;5024964;28;20041;-65
2022/09/08 08:40:11;;;;;;;0.20;0.20;;;;;;;;;;5031415;28;20033;-66
2022/09/08 08:42:46;;;;;;;0.90;0.35;;;;;;;;;;5029958;28;20132;-66
2022/09/08 08:45:20;;;;;;;0.77;0.30;;;;;;;;;;5025126;28;20053;-66
2022/09/08 08:48:09;;;;;;;0.25;0.20;;;;;;;;;;5031203;28;20087;-66
2022/09/08 08:50:57;;;;;;;0.55;0.30;;;;;;;;;;5028866;28;20045;-65
2022/09/08 08:53:35;;;;;;;0.32;0.13;;;;;;;;;;5031921;28;20102;-66
2022/09/08 08:56:30;;;;;;;0.40;0.20;;;;;;;;;;5022723;28;20045;-66
2022/09/08 08:58:58;;;;;;;;;;;;;;;;;;5036984;28;20052;-66
2022/09/08 09:01:34;;;;;;;0.30;0.30;;;;;;;;;;5032281;28;20011;-66
2022/09/08 09:04:09;;;;;;;0.25;0.20;;;;;;;;;;5029780;28;20053;-65
2022/09/08 09:06:38;;;;;;;;;;;;;;;;;;5028682;28;20046;-65
2022/09/08 09:09:25;;;;;;;0.10;0.10;;;;;;;;;;5034340;28;20235;-66
2022/09/08 09:12:06;;;;;;;0.20;0.20;;;;;;;;;;5028664;28;20049;-66
2022/09/08 09:14:50;;;;;;;0.10;0.10;;;;;;;;;;5029373;28;20456;-67
2022/09/08 09:17:49;;;;;;;0.28;0.28;;;;;;;;;;5043434;28;20045;-66
2022/09/08 09:20:37;;;;;;;0.25;0.10;;;;;;;;;;5042315;28;20049;-66
2022/09/08 09:23:13;;;;;;;0.20;0.20;;;;;;;;;;5039197;28;20057;-66
2022/09/08 09:25:52;;;;;;;0.82;0.82;;;;;;;;;;5040088;28;20046;-66
2022/09/08 09:28:51;;;;;;;0.05;0.05;;;;;;;;;;5031215;28;20087;-67
2022/09/08 09:31:33;;;;;;;0.05;0.05;;;;;;;;;;5004913;28;20054;-67
2022/09/08 09:34:29;;;;;;;0.00;0.00;;;;;;;;;;5026059;28;20528;-68
2022/09/08 09:37:04;;;;;;;0.40;0.17;;;;;;;;;;5028923;28;20127;-67
2022/09/08 09:39:37;;;;;;;1.88;0.28;;;;;;;;;;5027179;28;20104;-67
2022/09/08 09:42:18;;;;;;;0.20;0.17;;;;;;;;;;5027921;28;20045;-67
2022/09/08 09:45:04;;;;;;;0.00;0.00;;;;;;;;;;5026571;28;20057;-68
2022/09/08 09:47:50;;;;;;;0.15;0.10;;;;;;;;;;5024340;28;20060;-68
2022/09/08 09:50:30;;;;;;;0.05;0.05;;;;;;;;;;5021272;28;20054;-69
2022/09/08 09:53:06;;;;;;;0.00;0.00;;;;;;;;;;5027842;28;20049;-68
2022/09/08 09:56:17;;;;;;;0.52;0.10;;;;;;;;;;5025193;28;20045;-70
2022/09/08 09:59:04;;;;;;;0.10;0.10;;;;;;;;;;5025583;28;20045;-67
2022/09/08 10:01:48;;;;;;;2.78;0.30;;;;;;;;;;5023596;28;20049;-67
2022/09/08 10:04:34;;;;;;;0.20;0.20;;;;;;;;;;5026189;28;20525;-67
2022/09/08 10:07:18;;;;;;;0.00;0.00;;;;;;;;;;5037029;28;20057;-67
2022/09/08 10:10:01;;;;;;;0.43;0.25;;;;;;;;;;5026836;28;20049;-67
2022/09/08 10:12:46;;;;;;;0.15;0.15;;;;;;;;;;4997362;28;20128;-67
2022/09/08 10:15:49;;;;;;;0.10;0.10;;;;;;;;;;5014448;28;20046;-67
2022/09/08 10:18:32;;;;;;;1.08;0.10;;;;;;;;;;5025054;28;20092;-67
2022/09/08 10:21:20;;;;;;;0.17;0.17;;;;;;;;;;5011370;28;20053;-67
2022/09/08 10:23:58;;;;;;;0.00;0.00;;;;;;;;;;5028633;28;20054;-67
2022/09/08 10:26:35;;;;;;;0.20;0.10;;;;;;;;;;5033219;28;20085;-67
2022/09/08 10:29:12;;;;;;;0.05;0.05;;;;;;;;;;5033085;28;20049;-67
2022/09/08 10:31:51;;;;;;;0.40;0.40;;;;;;;;;;5025268;28;20045;-67
2022/09/08 10:34:29;;;;;;;0.65;0.20;;;;;;;;;;5032475;28;20048;-67
2022/09/08 10:37:01;;;;;;;0.28;0.10;;;;;;;;;;5030856;28;20057;-67
2022/09/08 10:39:40;;;;;;;0.00;0.00;;;;;;;;;;5031472;28;20041;-66
2022/09/08 10:42:25;;;;;;;0.55;0.28;;;;;;;;;;5029857;28;20056;-67
2022/09/08 10:45:08;;;;;;;0.20;0.10;;;;;;;;;;5024731;28;20049;-67
2022/09/08 10:47:56;;;;;;;0.10;0.08;;;;;;;;;;5031298;28;20049;-66
2022/09/08 10:50:30;;;;;;;0.00;0.00;;;;;;;;;;5032819;28;20460;-67
2022/09/08 10:53:14;;;;;;;0.10;0.10;;;;;;;;;;5030173;28;20059;-67
2022/09/08 10:55:55;;;;;;;0.10;0.10;;;;;;;;;;5030789;28;20076;-68
2022/09/08 10:58:40;;;;;;;0.08;0.05;;;;;;;;;;5025730;28;20104;-67
2022/09/08 11:01:21;;;;;;;0.95;0.20;;;;;;;;;;5028805;28;20085;-68
2022/09/08 11:04:02;;;;;;;0.35;0.20;;;;;;;;;;5031941;28;20038;-68
2022/09/08 11:06:41;;;;;;;0.00;0.00;;;;;;;;;;5020386;28;20050;-68
2022/09/08 11:09:21;;;;;;;0.00;0.00;;;;;;;;;;5025761;28;20052;-68
2022/09/08 11:12:08;;;;;;;0.10;0.10;;;;;;;;;;5028085;28;20047;-68
2022/09/08 11:14:54;;;;;;;0.25;0.25;;;;;;;;;;5026335;28;20479;-68
2022/09/08 11:17:24;;;;;;;1.05;0.20;;;;;;;;;;5029432;28;20450;-67
2022/09/08 11:19:56;;;;;;;0.10;0.10;;;;;;;;;;5030962;28;20136;-67
2022/09/08 11:22:32;;;;;;;0.30;0.13;;;;;;;;;;5032550;28;20497;-67
2022/09/08 11:25:12;;;;;;;0.22;0.20;;;;;;;;;;5031597;28;20060;-67
2022/09/08 11:27:46;;;;;;;0.77;0.20;;;;;;;;;;5030128;28;20052;-68
2022/09/08 11:30:18;;;;;;;0.20;0.20;;;;;;;;;;5032154;28;20500;-67
2022/09/08 11:33:04;;;;;;;0.00;0.00;;;;;;;;;;5032229;28;20107;-67
2022/09/08 11:35:33;;;;;;;;;;;;;;;;;;5024009;28;20412;-67
2022/09/08 11:38:23;;;;;;;0.00;0.00;;;;;;;;;;5030383;28;20043;-68
2022/09/08 11:40:56;;;;;;;0.20;0.20;;;;;;;;;;5026076;28;20064;-67
2022/09/08 11:43:36;;;;;;;0.10;0.10;;;;;;;;;;5030484;28;20058;-67
2022/09/08 11:46:20;;;;;;;0.00;0.00;;;;;;;;;;5030776;28;20042;-67
2022/09/08 11:49:06;;;;;;;0.20;0.20;;;;;;;;;;5021764;28;20057;-67
2022/09/08 11:52:03;;;;;;;0.38;0.20;;;;;;;;;;5028176;28;20071;-67
2022/09/08 11:54:59;;;;;;;0.05;0.05;;;;;;;;;;5025619;28;20061;-67
2022/09/08 11:57:44;;;;;;;0.20;0.20;;;;;;;;;;5026892;28;20144;-67
2022/09/08 12:00:20;;;;;;;0.00;0.00;;;;;;;;;;5030832;28;20053;-67
2022/09/08 12:03:06;;;;;;;0.30;0.25;;;;;;;;;;5027125;28;20045;-67
2022/09/08 12:05:43;;;;;;;0.80;0.30;;;;;;;;;;5027693;28;20045;-66
2022/09/08 12:08:41;;;;;;;0.10;0.10;;;;;;;;;;5024451;28;20060;-67
2022/09/08 12:11:14;;;;;;;0.10;0.10;;;;;;;;;;5029739;28;20045;-67
2022/09/08 12:13:45;;;;;;;0.43;0.43;;;;;;;;;;5031186;28;20049;-66
2022/09/08 12:16:29;;;;;;;1.52;0.28;;;;;;;;;;5043733;28;20049;-67
2022/09/08 12:19:04;;;;;;;0.10;0.10;;;;;;;;;;5050240;28;20047;-67
2022/09/08 12:21:51;;;;;;;0.05;0.05;;;;;;;;;;5050880;28;20043;-67
2022/09/08 12:24:28;;;;;;;0.15;0.10;;;;;;;;;;5048314;28;20053;-68
2022/09/08 12:27:23;;;;;;;0.10;0.10;;;;;;;;;;5061367;28;20053;-67
2022/09/08 12:29:57;;;;;;;0.17;0.15;;;;;;;;;;5047581;28;20075;-67
2022/09/08 12:32:49;;;;;;;0.15;0.10;;;;;;;;;;5048946;28;20094;-67
2022/09/08 12:35:24;;;;;;;0.10;0.10;;;;;;;;;;5039450;28;20497;-67
2022/09/08 12:38:01;;;;;;;0.52;0.22;;;;;;;;;;5030019;28;20140;-67
2022/09/08 12:40:38;;;;;;;0.13;0.03;;;;;;;;;;5027870;28;20041;-66
2022/09/08 12:43:15;;;;;;;0.25;0.20;;;;;;;;;;5025851;28;20057;-67
2022/09/08 12:46:06;;;;;;;0.45;0.28;;;;;;;;;;5029650;28;20128;-67
2022/09/08 12:48:38;;;;;;;0.20;0.20;;;;;;;;;;5030265;28;20115;-67
2022/09/08 12:51:11;;;;;;;0.10;0.10;;;;;;;;;;5029244;28;20393;-67
2022/09/08 12:53:57;;;;;;;0.43;0.38;;;;;;;;;;5027952;28;20516;-67
2022/09/08 12:56:30;;;;;;;0.25;0.20;;;;;;;;;;5013102;28;20463;-67
2022/09/08 12:59:04;;;;;;;0.68;0.20;;;;;;;;;;5028457;28;20512;-67
2022/09/08 13:01:36;;;;;;;1.77;0.85;;;;;;;;;;5021913;28;20437;-67
2022/09/08 13:04:23;;;;;;;0.10;0.10;;;;;;;;;;5028336;28;20080;-67
2022/09/08 13:07:01;;;;;;;0.20;0.20;;;;;;;;;;5029895;28;20077;-67
2022/09/08 13:09:32;;;;;;;0.20;0.17;;;;;;;;;;5023720;28;20049;-67
2022/09/08 13:12:25;;;;;;;0.10;0.10;;;;;;;;;;5025308;28;20037;-67
2022/09/08 13:15:01;;;;;;;0.35;0.20;;;;;;;;;;4968686;28;20411;-67
2022/09/08 13:17:34;;;;;;;0.50;0.30;;;;;;;;;;5046365;28;20063;-66
2022/09/08 13:20:08;;;;;;;0.60;0.52;;;;;;;;;;5047034;28;20041;-67
2022/09/08 13:22:42;;;;;;;0.10;0.10;;;;;;;;;;5046347;28;20056;-67
2022/09/08 13:25:16;;;;;;;0.05;0.05;;;;;;;;;;5039502;28;20069;-67
2022/09/08 13:27:54;;;;;;;0.20;0.20;;;;;;;;;;5026101;28;20060;-67
2022/09/08 13:30:22;;;;;;;0.40;0.40;;;;;;;;;;5023238;28;20147;-66
2022/09/08 13:33:09;;;;;;;0.15;0.15;;;;;;;;;;5023272;28;20467;-67
2022/09/08 13:35:52;;;;;;;0.10;0.10;;;;;;;;;;5029824;28;20064;-66
2022/09/08 13:38:31;;;;;;;3.10;0.30;;;;;;;;;;5031983;28;20140;-67
2022/09/08 13:41:07;;;;;;;0.10;0.10;;;;;;;;;;5044860;28;20098;-66
2022/09/08 13:43:45;;;;;;;0.00;0.00;;;;;;;;;;5043321;28;20144;-67
2022/09/08 13:46:18;;;;;;;0.17;0.17;;;;;;;;;;5030950;28;20072;-67
2022/09/08 13:49:08;;;;;;;0.10;0.10;;;;;;;;;;5026366;28;20045;-67
2022/09/08 13:51:54;;;;;;;0.05;0.05;;;;;;;;;;5020403;28;20046;-68
2022/09/08 13:54:41;;;;;;;0.15;0.15;;;;;;;;;;5023021;28;20049;-67
2022/09/08 13:57:26;;;;;;;0.20;0.20;;;;;;;;;;5069388;28;20333;-67
2022/09/08 14:00:03;;;;;;;0.35;0.30;;;;;;;;;;5077889;28;20091;-67
2022/09/08 14:02:34;;;;;;;5.07;0.45;;;;;;;;;;5077112;28;20144;-67
2022/09/08 14:05:05;;;;;;;0.40;0.40;;;;;;;;;;5079843;28;20423;-67
2022/09/08 14:07:35;;;;;;;0.20;0.20;;;;;;;;;;5076647;28;20040;-66
2022/09/08 14:10:21;;;;;;;0.70;0.28;;;;;;;;;;5085007;28;20044;-67
2022/09/08 14:12:52;;;;;;;0.60;0.38;;;;;;;;;;5078896;28;20056;-67
2022/09/08 14:15:22;;;;;;;0.75;0.40;;;;;;;;;;5079581;28;20049;-67
2022/09/08 14:18:09;;;;;;;0.15;0.13;;;;;;;;;;5079078;28;20044;-67
2022/09/08 14:20:57;;;;;;;0.10;0.10;;;;;;;;;;5085873;28;20075;-67
2022/09/08 14:23:40;;;;;;;0.20;0.20;;;;;;;;;;5082431;28;20052;-66
2022/09/08 14:26:23;;;;;;;0.30;0.30;;;;;;;;;;5084314;28;20048;-67
2022/09/08 14:28:56;;;;;;;1.85;0.30;;;;;;;;;;5065184;28;20496;-67
2022/09/08 14:31:29;;;;;;;0.00;0.00;;;;;;;;;;5048833;28;20371;-67
2022/09/08 14:34:09;;;;;;;1.30;0.20;;;;;;;;;;5047104;28;20045;-68
2022/09/08 14:36:49;;;;;;;1.30;0.68;;;;;;;;;;5025539;28;20049;-67
2022/09/08 14:39:23;;;;;;;0.40;0.40;;;;;;;;;;5025546;28;20377;-67
2022/09/08 14:41:53;;;;;;;0.17;0.13;;;;;;;;;;5025377;28;20512;-67
2022/09/08 14:44:39;;;;;;;0.50;0.50;;;;;;;;;;5025092;28;20045;-66
2022/09/08 14:47:10;;;;;;;0.45;0.35;;;;;;;;;;5041771;28;20638;-66
2022/09/08 14:49:57;;;;;;;0.10;0.10;;;;;;;;;;5046717;28;20062;-66
2022/09/08 14:52:32;;;;;;;0.20;0.10;;;;;;;;;;5046970;28;20041;-66
2022/09/08 14:55:07;;;;;;;0.55;0.40;;;;;;;;;;5039144;28;20050;-67
2022/09/08 14:57:35;;;;;;;;;;;;;;;;;;5029026;28;20068;-67
2022/09/08 15:00:20;;;;;;;0.10;0.10;;;;;;;;;;5028986;28;19929;-67
2022/09/08 15:02:50;;;;;;;1.67;0.20;;;;;;;;;;5025531;28;20140;-67
2022/09/08 15:05:22;;;;;;;0.20;0.20;;;;;;;;;;5026042;28;20049;-67
2022/09/08 15:07:52;;;;;;;4.30;0.20;;;;;;;;;;5020175;28;20046;-66
2022/09/08 15:10:25;;;;;;;0.73;0.20;;;;;;;;;;5034983;28;20560;-67
2022/09/08 15:13:01;;;;;;;0.32;0.20;;;;;;;;;;5027679;28;20434;-67
2022/09/08 15:15:34;;;;;;;0.57;0.22;;;;;;;;;;5028194;28;20412;-66
2022/09/08 15:18:22;;;;;;;0.70;0.38;;;;;;;;;;5027800;28;20594;-66
2022/09/08 15:21:08;;;;;;;0.10;0.10;;;;;;;;;;5027459;28;20042;-65
2022/09/08 15:23:38;;;;;;;0.47;0.28;;;;;;;;;;5024764;28;20110;-67
2022/09/08 15:26:11;;;;;;;1.50;0.20;;;;;;;;;;5038556;28;20138;-66
2022/09/08 15:28:39;;;;;;;1.15;0.43;;;;;;;;;;5041561;28;20681;-66
2022/09/08 15:31:21;;;;;;;0.88;0.20;;;;;;;;;;5045882;28;20065;-66
2022/09/08 15:33:57;;;;;;;0.20;0.17;;;;;;;;;;5043995;28;20045;-66
2022/09/08 15:36:35;;;;;;;0.40;0.22;;;;;;;;;;5032456;28;20041;-66
2022/09/08 15:39:06;;;;;;;0.52;0.30;;;;;;;;;;5026950;28;20076;-66
2022/09/08 15:41:37;;;;;;;0.30;0.25;;;;;;;;;;5027367;28;20360;-66
2022/09/08 15:44:19;;;;;;;0.17;0.17;;;;;;;;;;5023420;28;20069;-66
2022/09/08 15:46:53;;;;;;;0.10;0.10;;;;;;;;;;5023939;28;20567;-66